sensor_id;sensor_type;location;lat;lon;timestamp;temperature;humidity
68439;SHT31;55421;51.600;5.718;2024-02-04T00:02:02;11.16;91.10
68439;SHT31;55421;51.600;5.718;2024-02-04T00:04:30;11.16;91.10
68439;SHT31;55421;51.600;5.718;2024-02-04T00:06:58;11.15;91.13
68439;SHT31;55421;51.600;5.718;2024-02-04T00:09:25;11.15;91.16
68439;SHT31;55421;51.600;5.718;2024-02-04T00:11:54;11.15;91.21
68439;SHT31;55421;51.600;5.718;2024-02-04T00:14:21;11.14;91.22
68439;SHT31;55421;51.600;5.718;2024-02-04T00:16:47;11.14;91.28
68439;SHT31;55421;51.600;5.718;2024-02-04T00:19:14;11.15;91.30
68439;SHT31;55421;51.600;5.718;2024-02-04T00:21:40;11.15;91.30
68439;SHT31;55421;51.600;5.718;2024-02-04T00:24:07;11.14;91.36
68439;SHT31;55421;51.600;5.718;2024-02-04T00:26:33;11.13;91.40
68439;SHT31;55421;51.600;5.718;2024-02-04T00:29:00;11.13;91.44
68439;SHT31;55421;51.600;5.718;2024-02-04T00:31:26;11.13;91.50
68439;SHT31;55421;51.600;5.718;2024-02-04T00:33:53;11.12;91.53
68439;SHT31;55421;51.600;5.718;2024-02-04T00:36:19;11.12;91.61
68439;SHT31;55421;51.600;5.718;2024-02-04T00:38:47;11.12;91.64
68439;SHT31;55421;51.600;5.718;2024-02-04T00:41:14;11.13;91.70
68439;SHT31;55421;51.600;5.718;2024-02-04T00:43:41;11.14;91.74
68439;SHT31;55421;51.600;5.718;2024-02-04T00:46:07;11.14;91.74
68439;SHT31;55421;51.600;5.718;2024-02-04T00:48:36;11.15;91.79
68439;SHT31;55421;51.600;5.718;2024-02-04T00:51:04;11.15;91.85
68439;SHT31;55421;51.600;5.718;2024-02-04T00:53:30;11.16;91.87
68439;SHT31;55421;51.600;5.718;2024-02-04T00:56:03;11.17;91.85
68439;SHT31;55421;51.600;5.718;2024-02-04T00:58:31;11.17;91.89
68439;SHT31;55421;51.600;5.718;2024-02-04T01:00:57;11.17;91.90
68439;SHT31;55421;51.600;5.718;2024-02-04T01:03:24;11.17;91.90
68439;SHT31;55421;51.600;5.718;2024-02-04T01:05:50;11.18;91.90
68439;SHT31;55421;51.600;5.718;2024-02-04T01:08:17;11.18;91.90
68439;SHT31;55421;51.600;5.718;2024-02-04T01:10:44;11.20;91.89
68439;SHT31;55421;51.600;5.718;2024-02-04T01:13:10;11.21;91.86
68439;SHT31;55421;51.600;5.718;2024-02-04T01:15:37;11.20;91.84
68439;SHT31;55421;51.600;5.718;2024-02-04T01:18:03;11.21;91.80
68439;SHT31;55421;51.600;5.718;2024-02-04T01:20:30;11.22;91.78
68439;SHT31;55421;51.600;5.718;2024-02-04T01:22:56;11.22;91.72
68439;SHT31;55421;51.600;5.718;2024-02-04T01:25:23;11.23;91.70
68439;SHT31;55421;51.600;5.718;2024-02-04T01:27:49;11.24;91.65
68439;SHT31;55421;51.600;5.718;2024-02-04T01:30:16;11.22;91.60
68439;SHT31;55421;51.600;5.718;2024-02-04T01:32:42;11.21;91.60
68439;SHT31;55421;51.600;5.718;2024-02-04T01:35:09;11.22;91.53
68439;SHT31;55421;51.600;5.718;2024-02-04T01:37:35;11.22;91.52
68439;SHT31;55421;51.600;5.718;2024-02-04T01:40:01;11.23;91.50
68439;SHT31;55421;51.600;5.718;2024-02-04T01:42:28;11.23;91.49
68439;SHT31;55421;51.600;5.718;2024-02-04T01:44:54;11.23;91.46
68439;SHT31;55421;51.600;5.718;2024-02-04T01:47:22;11.23;91.41
68439;SHT31;55421;51.600;5.718;2024-02-04T01:49:49;11.24;91.40
68439;SHT31;55421;51.600;5.718;2024-02-04T01:52:16;11.24;91.39
68439;SHT31;55421;51.600;5.718;2024-02-04T01:54:43;11.25;91.31
68439;SHT31;55421;51.600;5.718;2024-02-04T01:57:10;11.26;91.30
68439;SHT31;55421;51.600;5.718;2024-02-04T01:59:38;11.26;91.29
68439;SHT31;55421;51.600;5.718;2024-02-04T02:02:06;11.28;91.25
68439;SHT31;55421;51.600;5.718;2024-02-04T02:04:32;11.28;91.20
68439;SHT31;55421;51.600;5.718;2024-02-04T02:06:59;11.28;91.18
68439;SHT31;55421;51.600;5.718;2024-02-04T02:09:26;11.30;91.17
68439;SHT31;55421;51.600;5.718;2024-02-04T02:12:07;11.30;91.15
68439;SHT31;55421;51.600;5.718;2024-02-04T02:14:50;11.29;91.11
68439;SHT31;55421;51.600;5.718;2024-02-04T02:17:57;11.29;91.11
68439;SHT31;55421;51.600;5.718;2024-02-04T02:21:02;11.28;91.10
68439;SHT31;55421;51.600;5.718;2024-02-04T02:24:03;11.28;91.10
68439;SHT31;55421;51.600;5.718;2024-02-04T02:26:35;11.29;91.08
68439;SHT31;55421;51.600;5.718;2024-02-04T02:29:12;11.30;91.00
68439;SHT31;55421;51.600;5.718;2024-02-04T02:31:38;11.30;90.98
68439;SHT31;55421;51.600;5.718;2024-02-04T02:34:08;11.32;90.95
68439;SHT31;55421;51.600;5.718;2024-02-04T02:36:37;11.32;90.90
68439;SHT31;55421;51.600;5.718;2024-02-04T02:39:45;11.34;90.90
68439;SHT31;55421;51.600;5.718;2024-02-04T02:42:24;11.35;90.82
68439;SHT31;55421;51.600;5.718;2024-02-04T02:44:53;11.35;90.80
68439;SHT31;55421;51.600;5.718;2024-02-04T02:47:22;11.36;90.80
68439;SHT31;55421;51.600;5.718;2024-02-04T02:49:52;11.36;90.80
68439;SHT31;55421;51.600;5.718;2024-02-04T02:52:21;11.36;90.80
68439;SHT31;55421;51.600;5.718;2024-02-04T02:54:49;11.35;90.80
68439;SHT31;55421;51.600;5.718;2024-02-04T02:57:15;11.35;90.78
68439;SHT31;55421;51.600;5.718;2024-02-04T02:59:42;11.35;90.78
68439;SHT31;55421;51.600;5.718;2024-02-04T03:02:08;11.33;90.75
68439;SHT31;55421;51.600;5.718;2024-02-04T03:04:35;11.32;90.72
68439;SHT31;55421;51.600;5.718;2024-02-04T03:07:02;11.32;90.70
68439;SHT31;55421;51.600;5.718;2024-02-04T03:09:30;11.31;90.64
68439;SHT31;55421;51.600;5.718;2024-02-04T03:11:56;11.30;90.60
68439;SHT31;55421;51.600;5.718;2024-02-04T03:14:23;11.28;90.61
68439;SHT31;55421;51.600;5.718;2024-02-04T03:16:49;11.26;90.58
68439;SHT31;55421;51.600;5.718;2024-02-04T03:19:16;11.27;90.59
68439;SHT31;55421;51.600;5.718;2024-02-04T03:21:42;11.25;90.56
68439;SHT31;55421;51.600;5.718;2024-02-04T03:24:09;11.25;90.50
68439;SHT31;55421;51.600;5.718;2024-02-04T03:26:35;11.23;90.44
68439;SHT31;55421;51.600;5.718;2024-02-04T03:29:02;11.22;90.36
68439;SHT31;55421;51.600;5.718;2024-02-04T03:31:30;11.21;90.30
68439;SHT31;55421;51.600;5.718;2024-02-04T03:33:57;11.20;90.30
68439;SHT31;55421;51.600;5.718;2024-02-04T03:36:24;11.19;90.29
68439;SHT31;55421;51.600;5.718;2024-02-04T03:38:51;11.18;90.20
68439;SHT31;55421;51.600;5.718;2024-02-04T03:41:18;11.16;90.18
68439;SHT31;55421;51.600;5.718;2024-02-04T03:43:45;11.15;90.10
68439;SHT31;55421;51.600;5.718;2024-02-04T03:46:15;11.13;90.10
68439;SHT31;55421;51.600;5.718;2024-02-04T03:48:42;11.11;90.08
68439;SHT31;55421;51.600;5.718;2024-02-04T03:51:16;11.10;90.07
68439;SHT31;55421;51.600;5.718;2024-02-04T03:53:45;11.09;90.01
68439;SHT31;55421;51.600;5.718;2024-02-04T03:56:13;11.08;90.01
68439;SHT31;55421;51.600;5.718;2024-02-04T03:58:39;11.07;90.00
68439;SHT31;55421;51.600;5.718;2024-02-04T04:01:09;11.05;89.97
68439;SHT31;55421;51.600;5.718;2024-02-04T04:03:40;11.04;89.93
68439;SHT31;55421;51.600;5.718;2024-02-04T04:06:09;11.03;89.93
68439;SHT31;55421;51.600;5.718;2024-02-04T04:08:36;11.03;89.98
68439;SHT31;55421;51.600;5.718;2024-02-04T04:11:04;11.03;89.93
68439;SHT31;55421;51.600;5.718;2024-02-04T04:13:31;11.02;89.94
68439;SHT31;55421;51.600;5.718;2024-02-04T04:16:03;11.02;90.00
68439;SHT31;55421;51.600;5.718;2024-02-04T04:18:32;11.01;90.00
68439;SHT31;55421;51.600;5.718;2024-02-04T04:20:59;11.01;90.01
68439;SHT31;55421;51.600;5.718;2024-02-04T04:23:25;11.02;90.00
68439;SHT31;55421;51.600;5.718;2024-02-04T04:25:52;11.01;90.00
68439;SHT31;55421;51.600;5.718;2024-02-04T04:28:18;11.02;90.00
68439;SHT31;55421;51.600;5.718;2024-02-04T04:30:45;11.02;90.02
68439;SHT31;55421;51.600;5.718;2024-02-04T04:33:11;11.02;90.00
68439;SHT31;55421;51.600;5.718;2024-02-04T04:35:38;11.02;90.01
68439;SHT31;55421;51.600;5.718;2024-02-04T04:38:05;11.02;90.00
68439;SHT31;55421;51.600;5.718;2024-02-04T04:40:31;11.03;90.00
68439;SHT31;55421;51.600;5.718;2024-02-04T04:42:58;11.03;90.01
68439;SHT31;55421;51.600;5.718;2024-02-04T04:45:24;11.03;90.00
68439;SHT31;55421;51.600;5.718;2024-02-04T04:47:51;11.04;90.00
68439;SHT31;55421;51.600;5.718;2024-02-04T04:50:17;11.03;90.01
68439;SHT31;55421;51.600;5.718;2024-02-04T04:52:43;11.04;89.99
68439;SHT31;55421;51.600;5.718;2024-02-04T04:55:10;11.04;90.00
68439;SHT31;55421;51.600;5.718;2024-02-04T04:57:37;11.05;90.01
68439;SHT31;55421;51.600;5.718;2024-02-04T05:00:04;11.06;90.04
68439;SHT31;55421;51.600;5.718;2024-02-04T05:02:33;11.07;90.01
68439;SHT31;55421;51.600;5.718;2024-02-04T05:05:00;11.08;90.00
68439;SHT31;55421;51.600;5.718;2024-02-04T05:07:26;11.10;90.00
68439;SHT31;55421;51.600;5.718;2024-02-04T05:09:53;11.11;89.97
68439;SHT31;55421;51.600;5.718;2024-02-04T05:12:20;11.12;89.99
68439;SHT31;55421;51.600;5.718;2024-02-04T05:14:46;11.14;89.99
68439;SHT31;55421;51.600;5.718;2024-02-04T05:17:13;11.14;89.99
68439;SHT31;55421;51.600;5.718;2024-02-04T05:19:43;11.15;90.00
68439;SHT31;55421;51.600;5.718;2024-02-04T05:22:09;11.14;90.03
68439;SHT31;55421;51.600;5.718;2024-02-04T05:24:36;11.13;90.10
68439;SHT31;55421;51.600;5.718;2024-02-04T05:27:03;11.12;90.19
68439;SHT31;55421;51.600;5.718;2024-02-04T05:29:31;11.11;90.22
68439;SHT31;55421;51.600;5.718;2024-02-04T05:31:58;11.10;90.30
68439;SHT31;55421;51.600;5.718;2024-02-04T05:34:24;11.09;90.42
68439;SHT31;55421;51.600;5.718;2024-02-04T05:36:51;11.09;90.55
68439;SHT31;55421;51.600;5.718;2024-02-04T05:39:18;11.09;90.60
68439;SHT31;55421;51.600;5.718;2024-02-04T05:41:44;11.08;90.60
68439;SHT31;55421;51.600;5.718;2024-02-04T05:44:11;11.08;90.65
68439;SHT31;55421;51.600;5.718;2024-02-04T05:46:38;11.08;90.73
68439;SHT31;55421;51.600;5.718;2024-02-04T05:49:05;11.07;90.80
68439;SHT31;55421;51.600;5.718;2024-02-04T05:51:32;11.07;90.80
68439;SHT31;55421;51.600;5.718;2024-02-04T05:54:03;11.07;90.80
68439;SHT31;55421;51.600;5.718;2024-02-04T05:56:29;11.07;90.80
68439;SHT31;55421;51.600;5.718;2024-02-04T05:58:56;11.08;90.81
68439;SHT31;55421;51.600;5.718;2024-02-04T06:01:23;11.09;90.80
68439;SHT31;55421;51.600;5.718;2024-02-04T06:03:49;11.08;90.77
68439;SHT31;55421;51.600;5.718;2024-02-04T06:06:16;11.09;90.70
68439;SHT31;55421;51.600;5.718;2024-02-04T06:08:46;11.09;90.69
68439;SHT31;55421;51.600;5.718;2024-02-04T06:11:13;11.10;90.68
68439;SHT31;55421;51.600;5.718;2024-02-04T06:13:42;11.09;90.65
68439;SHT31;55421;51.600;5.718;2024-02-04T06:16:10;11.09;90.60
68439;SHT31;55421;51.600;5.718;2024-02-04T06:18:38;11.09;90.60
68439;SHT31;55421;51.600;5.718;2024-02-04T06:21:05;11.09;90.60
68439;SHT31;55421;51.600;5.718;2024-02-04T06:23:33;11.09;90.61
68439;SHT31;55421;51.600;5.718;2024-02-04T06:26:00;11.08;90.60
68439;SHT31;55421;51.600;5.718;2024-02-04T06:28:27;11.09;90.59
68439;SHT31;55421;51.600;5.718;2024-02-04T06:30:54;11.09;90.59
68439;SHT31;55421;51.600;5.718;2024-02-04T06:33:20;11.08;90.60
68439;SHT31;55421;51.600;5.718;2024-02-04T06:35:48;11.07;90.58
68439;SHT31;55421;51.600;5.718;2024-02-04T06:38:15;11.07;90.56
68439;SHT31;55421;51.600;5.718;2024-02-04T06:40:41;11.07;90.51
68439;SHT31;55421;51.600;5.718;2024-02-04T06:43:07;11.06;90.50
68439;SHT31;55421;51.600;5.718;2024-02-04T06:45:34;11.05;90.50
68439;SHT31;55421;51.600;5.718;2024-02-04T06:48:01;11.05;90.52
68439;SHT31;55421;51.600;5.718;2024-02-04T06:50:27;11.06;90.50
68439;SHT31;55421;51.600;5.718;2024-02-04T06:52:54;11.05;90.50
68439;SHT31;55421;51.600;5.718;2024-02-04T06:55:20;11.05;90.51
68439;SHT31;55421;51.600;5.718;2024-02-04T06:57:47;11.04;90.58
68439;SHT31;55421;51.600;5.718;2024-02-04T07:00:13;11.03;90.60
68439;SHT31;55421;51.600;5.718;2024-02-04T07:02:42;11.01;90.67
68439;SHT31;55421;51.600;5.718;2024-02-04T07:05:08;11.00;90.72
68439;SHT31;55421;51.600;5.718;2024-02-04T07:07:37;10.99;90.78
68439;SHT31;55421;51.600;5.718;2024-02-04T07:10:04;11.00;90.83
68439;SHT31;55421;51.600;5.718;2024-02-04T07:12:32;10.97;90.90
68439;SHT31;55421;51.600;5.718;2024-02-04T07:14:58;10.96;90.90
68439;SHT31;55421;51.600;5.718;2024-02-04T07:17:25;10.95;90.96
68439;SHT31;55421;51.600;5.718;2024-02-04T07:19:51;10.94;90.99
68439;SHT31;55421;51.600;5.718;2024-02-04T07:22:18;10.95;91.02
68439;SHT31;55421;51.600;5.718;2024-02-04T07:24:44;10.95;91.09
68439;SHT31;55421;51.600;5.718;2024-02-04T07:27:11;10.96;91.09
68439;SHT31;55421;51.600;5.718;2024-02-04T07:29:37;10.98;91.06
68439;SHT31;55421;51.600;5.718;2024-02-04T07:32:04;10.99;91.01
68439;SHT31;55421;51.600;5.718;2024-02-04T07:34:32;11.00;91.00
68439;SHT31;55421;51.600;5.718;2024-02-04T07:36:58;11.01;90.99
68439;SHT31;55421;51.600;5.718;2024-02-04T07:39:25;11.02;90.99
68439;SHT31;55421;51.600;5.718;2024-02-04T07:41:51;11.00;90.99
68439;SHT31;55421;51.600;5.718;2024-02-04T07:44:21;11.03;90.98
68439;SHT31;55421;51.600;5.718;2024-02-04T07:46:49;11.04;90.93
68439;SHT31;55421;51.600;5.718;2024-02-04T07:49:18;11.05;90.91
68439;SHT31;55421;51.600;5.718;2024-02-04T07:51:45;11.07;90.91
68439;SHT31;55421;51.600;5.718;2024-02-04T07:54:12;11.08;90.90
68439;SHT31;55421;51.600;5.718;2024-02-04T07:56:41;11.09;90.89
68439;SHT31;55421;51.600;5.718;2024-02-04T07:59:08;11.10;90.89
68439;SHT31;55421;51.600;5.718;2024-02-04T08:01:36;11.12;90.90
68439;SHT31;55421;51.600;5.718;2024-02-04T08:04:03;11.12;90.88
68439;SHT31;55421;51.600;5.718;2024-02-04T08:06:33;11.13;90.91
68439;SHT31;55421;51.600;5.718;2024-02-04T08:09:01;11.12;90.89
68439;SHT31;55421;51.600;5.718;2024-02-04T08:11:28;11.14;90.83
68439;SHT31;55421;51.600;5.718;2024-02-04T08:13:55;11.13;90.81
68439;SHT31;55421;51.600;5.718;2024-02-04T08:16:22;11.13;90.81
68439;SHT31;55421;51.600;5.718;2024-02-04T08:18:48;11.14;90.81
68439;SHT31;55421;51.600;5.718;2024-02-04T08:21:15;11.15;90.81
68439;SHT31;55421;51.600;5.718;2024-02-04T08:23:44;11.16;90.82
68439;SHT31;55421;51.600;5.718;2024-02-04T08:26:11;11.16;90.80
68439;SHT31;55421;51.600;5.718;2024-02-04T08:28:38;11.17;90.80
68439;SHT31;55421;51.600;5.718;2024-02-04T08:31:06;11.18;90.80
68439;SHT31;55421;51.600;5.718;2024-02-04T08:33:33;11.18;90.79
68439;SHT31;55421;51.600;5.718;2024-02-04T08:35:59;11.18;90.73
68439;SHT31;55421;51.600;5.718;2024-02-04T08:38:26;11.18;90.71
68439;SHT31;55421;51.600;5.718;2024-02-04T08:40:54;11.19;90.72
68439;SHT31;55421;51.600;5.718;2024-02-04T08:43:21;11.19;90.72
68439;SHT31;55421;51.600;5.718;2024-02-04T08:45:50;11.19;90.70
68439;SHT31;55421;51.600;5.718;2024-02-04T08:48:17;11.20;90.70
68439;SHT31;55421;51.600;5.718;2024-02-04T08:50:43;11.20;90.71
68439;SHT31;55421;51.600;5.718;2024-02-04T08:53:17;11.20;90.71
68439;SHT31;55421;51.600;5.718;2024-02-04T08:55:44;11.22;90.70
68439;SHT31;55421;51.600;5.718;2024-02-04T08:58:10;11.22;90.67
68439;SHT31;55421;51.600;5.718;2024-02-04T09:00:39;11.23;90.64
68439;SHT31;55421;51.600;5.718;2024-02-04T09:03:07;11.25;90.69
68439;SHT31;55421;51.600;5.718;2024-02-04T09:05:35;11.27;90.64
68439;SHT31;55421;51.600;5.718;2024-02-04T09:08:02;11.30;90.58
68439;SHT31;55421;51.600;5.718;2024-02-04T09:10:28;11.32;90.45
68439;SHT31;55421;51.600;5.718;2024-02-04T09:12:55;11.34;90.38
68439;SHT31;55421;51.600;5.718;2024-02-04T09:15:42;11.35;90.30
68439;SHT31;55421;51.600;5.718;2024-02-04T09:18:09;11.36;90.22
68439;SHT31;55421;51.600;5.718;2024-02-04T09:20:36;11.39;90.20
68439;SHT31;55421;51.600;5.718;2024-02-04T09:23:04;11.41;90.17
68439;SHT31;55421;51.600;5.718;2024-02-04T09:25:32;11.45;90.08
68439;SHT31;55421;51.600;5.718;2024-02-04T09:27:59;11.47;89.94
68439;SHT31;55421;51.600;5.718;2024-02-04T09:30:26;11.48;89.90
68439;SHT31;55421;51.600;5.718;2024-02-04T09:32:53;11.50;89.80
68439;SHT31;55421;51.600;5.718;2024-02-04T09:35:23;11.56;89.78
68439;SHT31;55421;51.600;5.718;2024-02-04T09:37:52;11.59;89.72
68439;SHT31;55421;51.600;5.718;2024-02-04T09:40:18;11.62;89.62
68439;SHT31;55421;51.600;5.718;2024-02-04T09:42:47;11.65;89.47
68439;SHT31;55421;51.600;5.718;2024-02-04T09:45:15;11.69;89.43
68439;SHT31;55421;51.600;5.718;2024-02-04T09:47:45;11.74;89.37
68439;SHT31;55421;51.600;5.718;2024-02-04T09:50:12;11.79;89.28
68439;SHT31;55421;51.600;5.718;2024-02-04T09:52:40;11.83;89.12
68439;SHT31;55421;51.600;5.718;2024-02-04T09:55:10;11.85;89.08
68439;SHT31;55421;51.600;5.718;2024-02-04T09:57:39;11.84;88.91
68439;SHT31;55421;51.600;5.718;2024-02-04T10:00:06;11.84;88.90
68439;SHT31;55421;51.600;5.718;2024-02-04T10:02:34;11.83;88.90
68439;SHT31;55421;51.600;5.718;2024-02-04T10:05:01;11.82;88.88
68439;SHT31;55421;51.600;5.718;2024-02-04T10:07:29;11.79;88.81
68439;SHT31;55421;51.600;5.718;2024-02-04T10:09:56;11.76;88.74
68439;SHT31;55421;51.600;5.718;2024-02-04T10:12:22;11.75;88.77
68439;SHT31;55421;51.600;5.718;2024-02-04T10:14:49;11.73;88.89
68439;SHT31;55421;51.600;5.718;2024-02-04T10:17:16;11.72;88.92
68439;SHT31;55421;51.600;5.718;2024-02-04T10:19:42;11.68;89.04
68439;SHT31;55421;51.600;5.718;2024-02-04T10:22:09;11.69;89.22
68439;SHT31;55421;51.600;5.718;2024-02-04T10:24:36;11.67;89.38
68439;SHT31;55421;51.600;5.718;2024-02-04T10:27:02;11.66;89.58
68439;SHT31;55421;51.600;5.718;2024-02-04T10:29:30;11.66;89.72
68439;SHT31;55421;51.600;5.718;2024-02-04T10:31:56;11.66;89.86
68439;SHT31;55421;51.600;5.718;2024-02-04T10:34:27;11.68;89.98
68439;SHT31;55421;51.600;5.718;2024-02-04T10:36:56;11.68;90.08
68439;SHT31;55421;51.600;5.718;2024-02-04T10:39:23;11.68;90.12
68439;SHT31;55421;51.600;5.718;2024-02-04T10:41:50;11.67;90.17
68439;SHT31;55421;51.600;5.718;2024-02-04T10:44:23;11.67;90.27
68439;SHT31;55421;51.600;5.718;2024-02-04T10:46:51;11.67;90.30
68439;SHT31;55421;51.600;5.718;2024-02-04T10:49:20;11.69;90.40
68439;SHT31;55421;51.600;5.718;2024-02-04T10:51:49;11.70;90.45
68439;SHT31;55421;51.600;5.718;2024-02-04T10:54:18;11.73;90.51
68439;SHT31;55421;51.600;5.718;2024-02-04T10:56:53;11.74;90.51
68439;SHT31;55421;51.600;5.718;2024-02-04T10:59:24;11.73;90.50
68439;SHT31;55421;51.600;5.718;2024-02-04T11:01:56;11.72;90.49
68439;SHT31;55421;51.600;5.718;2024-02-04T11:04:23;11.72;90.51
68439;SHT31;55421;51.600;5.718;2024-02-04T11:06:49;11.73;90.52
68439;SHT31;55421;51.600;5.718;2024-02-04T11:09:18;11.73;90.57
68439;SHT31;55421;51.600;5.718;2024-02-04T11:11:45;11.74;90.60
68439;SHT31;55421;51.600;5.718;2024-02-04T11:14:14;11.73;90.63
68439;SHT31;55421;51.600;5.718;2024-02-04T11:24:55;11.74;90.68
68439;SHT31;55421;51.600;5.718;2024-02-04T11:27:38;11.73;90.71
68439;SHT31;55421;51.600;5.718;2024-02-04T11:30:06;11.73;90.74
68439;SHT31;55421;51.600;5.718;2024-02-04T11:32:36;11.73;90.79
68439;SHT31;55421;51.600;5.718;2024-02-04T11:35:02;11.73;90.80
68439;SHT31;55421;51.600;5.718;2024-02-04T11:37:33;11.72;90.80
68439;SHT31;55421;51.600;5.718;2024-02-04T11:40:00;11.71;90.82
68439;SHT31;55421;51.600;5.718;2024-02-04T11:42:31;11.69;90.86
68439;SHT31;55421;51.600;5.718;2024-02-04T11:45:09;11.68;90.90
68439;SHT31;55421;51.600;5.718;2024-02-04T11:47:38;11.67;90.94
68439;SHT31;55421;51.600;5.718;2024-02-04T11:50:06;11.68;91.00
68439;SHT31;55421;51.600;5.718;2024-02-04T11:52:35;11.70;91.02
68439;SHT31;55421;51.600;5.718;2024-02-04T11:55:02;11.73;91.03
68439;SHT31;55421;51.600;5.718;2024-02-04T11:57:30;11.75;91.01
68439;SHT31;55421;51.600;5.718;2024-02-04T11:59:58;11.76;90.98
68439;SHT31;55421;51.600;5.718;2024-02-04T12:02:24;11.76;90.94
68439;SHT31;55421;51.600;5.718;2024-02-04T12:04:51;11.75;90.90
68439;SHT31;55421;51.600;5.718;2024-02-04T12:07:18;11.74;90.90
68439;SHT31;55421;51.600;5.718;2024-02-04T12:09:45;11.73;90.98
68439;SHT31;55421;51.600;5.718;2024-02-04T12:12:14;11.73;91.01
68439;SHT31;55421;51.600;5.718;2024-02-04T12:14:41;11.74;91.01
68439;SHT31;55421;51.600;5.718;2024-02-04T12:17:09;11.76;91.09
68439;SHT31;55421;51.600;5.718;2024-02-04T12:19:37;11.76;91.08
68439;SHT31;55421;51.600;5.718;2024-02-04T12:22:07;11.77;91.04
68439;SHT31;55421;51.600;5.718;2024-02-04T12:24:36;11.77;91.05
68439;SHT31;55421;51.600;5.718;2024-02-04T12:27:05;11.76;91.05
68439;SHT31;55421;51.600;5.718;2024-02-04T12:29:31;11.75;91.04
68439;SHT31;55421;51.600;5.718;2024-02-04T12:32:02;11.74;91.10
68439;SHT31;55421;51.600;5.718;2024-02-04T12:34:30;11.72;91.11
68439;SHT31;55421;51.600;5.718;2024-02-04T12:37:00;11.73;91.10
68439;SHT31;55421;51.600;5.718;2024-02-04T12:39:28;11.73;91.15
68439;SHT31;55421;51.600;5.718;2024-02-04T12:41:55;11.75;91.11
68439;SHT31;55421;51.600;5.718;2024-02-04T12:44:22;11.77;91.12
68439;SHT31;55421;51.600;5.718;2024-02-04T12:46:51;11.77;91.01
68439;SHT31;55421;51.600;5.718;2024-02-04T12:49:19;11.77;90.98
68439;SHT31;55421;51.600;5.718;2024-02-04T12:51:48;11.78;90.98
68439;SHT31;55421;51.600;5.718;2024-02-04T12:54:15;11.77;90.92
68439;SHT31;55421;51.600;5.718;2024-02-04T12:56:47;11.76;90.91
68439;SHT31;55421;51.600;5.718;2024-02-04T13:01:57;11.73;90.90
68439;SHT31;55421;51.600;5.718;2024-02-04T13:04:37;11.73;90.96
68439;SHT31;55421;51.600;5.718;2024-02-04T13:09:40;11.72;90.96
68439;SHT31;55421;51.600;5.718;2024-02-04T13:12:08;11.71;90.90
68439;SHT31;55421;51.600;5.718;2024-02-04T13:14:37;11.71;90.90
68439;SHT31;55421;51.600;5.718;2024-02-04T13:17:05;11.70;90.84
68439;SHT31;55421;51.600;5.718;2024-02-04T13:19:35;11.69;90.81
68439;SHT31;55421;51.600;5.718;2024-02-04T13:22:04;11.69;90.80
68439;SHT31;55421;51.600;5.718;2024-02-04T13:24:41;11.70;90.80
68439;SHT31;55421;51.600;5.718;2024-02-04T13:27:07;11.71;90.79
68439;SHT31;55421;51.600;5.718;2024-02-04T13:29:34;11.72;90.70
68439;SHT31;55421;51.600;5.718;2024-02-04T13:32:01;11.73;90.64
68439;SHT31;55421;51.600;5.718;2024-02-04T13:34:28;11.73;90.52
68439;SHT31;55421;51.600;5.718;2024-02-04T13:36:54;11.74;90.40
68439;SHT31;55421;51.600;5.718;2024-02-04T13:39:21;11.77;90.32
68439;SHT31;55421;51.600;5.718;2024-02-04T13:41:48;11.79;90.25
68439;SHT31;55421;51.600;5.718;2024-02-04T13:44:14;11.81;90.13
68439;SHT31;55421;51.600;5.718;2024-02-04T13:46:41;11.84;90.00
68439;SHT31;55421;51.600;5.718;2024-02-04T13:49:09;11.86;89.92
68439;SHT31;55421;51.600;5.718;2024-02-04T13:51:38;11.89;89.89
68439;SHT31;55421;51.600;5.718;2024-02-04T13:54:05;11.91;89.75
68439;SHT31;55421;51.600;5.718;2024-02-04T13:56:31;11.93;89.47
68439;SHT31;55421;51.600;5.718;2024-02-04T13:58:59;11.95;89.17
68439;SHT31;55421;51.600;5.718;2024-02-04T14:01:26;11.99;89.10
68439;SHT31;55421;51.600;5.718;2024-02-04T14:03:52;12.02;89.03
68439;SHT31;55421;51.600;5.718;2024-02-04T14:06:18;12.03;88.98
68439;SHT31;55421;51.600;5.718;2024-02-04T14:08:45;12.06;88.80
68439;SHT31;55421;51.600;5.718;2024-02-04T14:11:11;12.07;88.77
68439;SHT31;55421;51.600;5.718;2024-02-04T14:13:38;12.11;88.70
68439;SHT31;55421;51.600;5.718;2024-02-04T14:16:04;12.12;88.53
68439;SHT31;55421;51.600;5.718;2024-02-04T14:18:32;12.13;88.32
68439;SHT31;55421;51.600;5.718;2024-02-04T14:20:59;12.14;88.15
68439;SHT31;55421;51.600;5.718;2024-02-04T14:23:25;12.14;87.96
68439;SHT31;55421;51.600;5.718;2024-02-04T14:25:52;12.15;87.92
68439;SHT31;55421;51.600;5.718;2024-02-04T14:28:19;12.15;87.98
68439;SHT31;55421;51.600;5.718;2024-02-04T14:30:47;12.16;87.87
68439;SHT31;55421;51.600;5.718;2024-02-04T14:33:14;12.17;87.72
68439;SHT31;55421;51.600;5.718;2024-02-04T14:35:40;12.19;87.66
68439;SHT31;55421;51.600;5.718;2024-02-04T14:38:07;12.21;87.70
68439;SHT31;55421;51.600;5.718;2024-02-04T14:40:33;12.23;87.64
68439;SHT31;55421;51.600;5.718;2024-02-04T14:43:00;12.24;87.57
68439;SHT31;55421;51.600;5.718;2024-02-04T14:45:28;12.24;87.60
68439;SHT31;55421;51.600;5.718;2024-02-04T14:47:55;12.24;87.35
68439;SHT31;55421;51.600;5.718;2024-02-04T14:50:21;12.23;87.28
68439;SHT31;55421;51.600;5.718;2024-02-04T14:52:48;12.24;87.21
68439;SHT31;55421;51.600;5.718;2024-02-04T14:55:14;12.25;87.06
68439;SHT31;55421;51.600;5.718;2024-02-04T14:57:41;12.24;86.89
68439;SHT31;55421;51.600;5.718;2024-02-04T15:00:08;12.26;86.94
68439;SHT31;55421;51.600;5.718;2024-02-04T15:02:36;12.27;86.88
68439;SHT31;55421;51.600;5.718;2024-02-04T15:05:03;12.27;86.86
68439;SHT31;55421;51.600;5.718;2024-02-04T15:07:30;12.28;86.71
68439;SHT31;55421;51.600;5.718;2024-02-04T15:09:56;12.29;86.70
68439;SHT31;55421;51.600;5.718;2024-02-04T15:12:24;12.30;86.67
68439;SHT31;55421;51.600;5.718;2024-02-04T15:14:51;12.31;86.67
68439;SHT31;55421;51.600;5.718;2024-02-04T15:17:19;12.31;86.73
68439;SHT31;55421;51.600;5.718;2024-02-04T15:19:46;12.30;86.76
68439;SHT31;55421;51.600;5.718;2024-02-04T15:22:13;12.30;86.79
68439;SHT31;55421;51.600;5.718;2024-02-04T15:24:40;12.30;86.90
68439;SHT31;55421;51.600;5.718;2024-02-04T15:27:08;12.30;86.97
68439;SHT31;55421;51.600;5.718;2024-02-04T15:29:36;12.29;86.99
68439;SHT31;55421;51.600;5.718;2024-02-04T15:32:04;12.28;87.03
68439;SHT31;55421;51.600;5.718;2024-02-04T15:34:31;12.27;87.07
68439;SHT31;55421;51.600;5.718;2024-02-04T15:36:59;12.26;87.08
68439;SHT31;55421;51.600;5.718;2024-02-04T15:39:26;12.23;87.16
68439;SHT31;55421;51.600;5.718;2024-02-04T15:41:52;12.21;87.19
68439;SHT31;55421;51.600;5.718;2024-02-04T15:44:19;12.21;87.21
68439;SHT31;55421;51.600;5.718;2024-02-04T15:46:48;12.20;87.28
68439;SHT31;55421;51.600;5.718;2024-02-04T15:49:20;12.19;87.28